WetterOnline ( https://www.wetteronline.de )

Wetter aktuell Ostingersleben

Aktuelles Wetter: Ummendorf (163m)

6-stündlich | Neueste Meldungen
Ortszeit Temperatur Wetter
Sa, 29.01. 7:00 4.4° C Regen
Sa, 29.01. 1:00 2.7° C bewölkt
Fr, 28.01. 19:00 3.4° C bedeckt
Fr, 28.01. 13:00 5.1° C wolkig
Fr, 28.01. 7:00 2.9° C leicht bewölkt
Fr, 28.01. 1:00 3.9° C bewölkt
Do, 27.01. 19:00 5.2° C leicht bewölkt
Do, 27.01. 13:00 3.5° C bewölkt
Ortszeit Temperatur Wetter
Sa, 29.01. 12:00 7.1° C bedeckt
Sa, 29.01. 11:50 7.1° C bedeckt
Sa, 29.01. 11:40 7.1° C bedeckt
Sa, 29.01. 11:30 6.9° C bedeckt
Sa, 29.01. 11:20 6.9° C bedeckt
Sa, 29.01. 11:10 6.8° C bedeckt
Sa, 29.01. 11:00 6.4° C bedeckt
Sa, 29.01. 10:30 5.9° C bedeckt
Sa, 29.01. 10:00 5.7° C bedeckt
Sa, 29.01. 9:30 5.4° C bedeckt
Sa, 29.01. 9:00 5.1° C bedeckt
Ortszeit Relative Feuchte Sichtweite
Sa, 29.01. 7:00 88% 22 km
Sa, 29.01. 1:00 80% 25 km
Fr, 28.01. 19:00 74% 26 km
Fr, 28.01. 13:00 68% 35 km
Fr, 28.01. 7:00 81% 30 km
Fr, 28.01. 1:00 78% 35 km
Do, 27.01. 19:00 84% 50 km
Do, 27.01. 13:00 94% 4.9 km
Ortszeit Relative Feuchte Sichtweite
Sa, 29.01. 12:00 86% 30 km
Sa, 29.01. 11:50 86% -
Sa, 29.01. 11:40 85% -
Sa, 29.01. 11:30 85% 30 km
Sa, 29.01. 11:20 85% -
Sa, 29.01. 11:10 86% -
Sa, 29.01. 11:00 88% -
Sa, 29.01. 10:30 89% 35 km
Sa, 29.01. 10:00 89% 30 km
Sa, 29.01. 9:30 90% 26 km
Sa, 29.01. 9:00 91% 22 km
Ortszeit Niederschlagsmenge Niederschlagsart
Sa, 29.01. 7:00 0.9 l/m2 in 12 Std. Regen
Sa, 29.01. 1:00 0.0 l/m2 in 6 Std. -
Fr, 28.01. 19:00 0.2 l/m2 in 12 Std. -
Fr, 28.01. 13:00 0.2 l/m2 in 6 Std. Regen
Fr, 28.01. 7:00 0.1 l/m2 in 12 Std. Regen
Fr, 28.01. 1:00 0.1 l/m2 in 6 Std. Regen
Do, 27.01. 19:00 2 l/m2 in 12 Std. Regen
Do, 27.01. 13:00 0.1 l/m2 in 6 Std. -
Ortszeit Niederschlagsmenge Niederschlagsart
Sa, 29.01. 12:00 0.1 l/m2 in 1 Std. -
Sa, 29.01. 11:50 keine Meldung -
Sa, 29.01. 11:40 keine Meldung -
Sa, 29.01. 11:30 0.1 l/m2 in 1 Std. -
Sa, 29.01. 11:20 keine Meldung -
Sa, 29.01. 11:10 keine Meldung -
Sa, 29.01. 11:00 0.0 l/m2 in 1 Std. -
Sa, 29.01. 10:30 0.0 l/m2 in 1 Std. -
Sa, 29.01. 10:00 0.0 l/m2 in 1 Std. Regen
Sa, 29.01. 9:30 0.0 l/m2 in 1 Std. -
Sa, 29.01. 9:00 0.1 l/m2 in 1 Std. -
Ortszeit Stärke Spitze Richtung
km/h Bft. km/h Grad Sektor
Sa, 29.01. 7:00 36 5 47 240° SW
Sa, 29.01. 1:00 13 3 31 220° SW
Fr, 28.01. 19:00 22 4 54 290° W
Fr, 28.01. 13:00 31 5 61 300° NW
Fr, 28.01. 7:00 41 6 80 290° W
Fr, 28.01. 1:00 43 6 76 290° W
Do, 27.01. 19:00 36 5 58 280° W
Do, 27.01. 13:00 43 6 76 260° W
Ortszeit Stärke Spitze Richtung
km/h Bft. km/h Grad Sektor
Sa, 29.01. 12:00 47 6 65 260° W
Sa, 29.01. 11:50 47 6 - 260° W
Sa, 29.01. 11:40 47 6 - 260° W
Sa, 29.01. 11:30 43 6 58 260° W
Sa, 29.01. 11:20 43 6 - 260° W
Sa, 29.01. 11:10 41 6 - 260° W
Sa, 29.01. 11:00 41 6 63 260° W
Sa, 29.01. 10:30 44 6 63 260° W
Sa, 29.01. 10:00 44 6 63 260° W
Sa, 29.01. 9:30 44 6 59 250° W
Sa, 29.01. 9:00 43 6 65 260° W
Ortszeit Untergrenze Bedeckung Gattung
total tief tief mittel hoch
Sa, 29.01. 7:00 420 m 8/8 8/8 - - -
Sa, 29.01. 1:00 2100 m 7/8 6/8 - - -
Fr, 28.01. 19:00 3300 m 8/8 8/8 - - -
Fr, 28.01. 13:00 960 m 6/8 6/8 - - -
Fr, 28.01. 7:00 540 m 4/8 4/8 - - -
Fr, 28.01. 1:00 660 m 7/8 7/8 - - -
Do, 27.01. 19:00 540 m 3/8 3/8 - - -
Do, 27.01. 13:00 210 m 7/8 7/8 - - -
Ortszeit Bedeckungsgrad in Achtel und Wolkenuntergrenze
Sa, 29.01. 12:00 8(390m)
Sa, 29.01. 11:50 8(390m)
Sa, 29.01. 11:40 8
Sa, 29.01. 11:30 8(390m)
Sa, 29.01. 11:20 8(390m)
Sa, 29.01. 11:10 8
Sa, 29.01. 11:00 8(390m)
Sa, 29.01. 10:30 8(360m)
Sa, 29.01. 10:00 8(360m)
Sa, 29.01. 9:30 7(270m) 8(420m)
Sa, 29.01. 9:00 8(240m)
Ortszeit Luftdruck NN (hPa) Tendenz (hPa in 3 Std.)
Sa, 29.01. 7:00 1021 - 3,7
Sa, 29.01. 1:00 1028 - 2,3
Fr, 28.01. 19:00 1032 + 1,2
Fr, 28.01. 13:00 1029 + 2,3
Fr, 28.01. 7:00 1024 + 2,2
Fr, 28.01. 1:00 1019 + 1,6
Do, 27.01. 19:00 1016 + 0,2
Do, 27.01. 13:00 1017 - 1,1
Ortszeit Luftdruck NN (hPa) Tendenz (hPa in 3 Std.)
Sa, 29.01. 12:00 1017 - 1,8
Sa, 29.01. 11:50 1017 keine Meldung
Sa, 29.01. 11:40 1017 keine Meldung
Sa, 29.01. 11:30 1018 - 1,8
Sa, 29.01. 11:20 1018 keine Meldung
Sa, 29.01. 11:10 1018 keine Meldung
Sa, 29.01. 11:00 1018 - 1,8
Sa, 29.01. 10:30 1019 - 2,0
Sa, 29.01. 10:00 1019 - 1,8
Sa, 29.01. 9:30 1019 - 2,3
Sa, 29.01. 9:00 1019 - 2,8
Ortszeit Schneehöhe (cm)
Sa, 29.01. 7:00 0
Sa, 29.01. 1:00 0
Fr, 28.01. 19:00 0
Fr, 28.01. 13:00 0
Fr, 28.01. 7:00 0
Fr, 28.01. 1:00 0
Do, 27.01. 19:00 0
Do, 27.01. 13:00 0
Ortszeit Schneehöhe (cm)
Sa, 29.01. 12:00 0
Sa, 29.01. 11:50 0
Sa, 29.01. 11:40 0
Sa, 29.01. 11:30 0
Sa, 29.01. 11:20 0
Sa, 29.01. 11:10 0
Sa, 29.01. 11:00 0
Sa, 29.01. 10:30 0
Sa, 29.01. 10:00 0
Sa, 29.01. 9:30 0
Sa, 29.01. 9:00 0
Link zu dieser Seite / Seite empfehlen

Das Wetter in ...